Airfield :
LOGIN :

Register | Disclaimer

   EN    FR    IT 

 










Legend :    VFR   Marginal VFR   IFR   Intensive IFR   Very Intensive IFR
Visi :
Ceiling :
>= 8 km
>= 3000ft
5 to 8 km
1000 to 3000 ft
1500m to 5 km
500 to 1000 ft
800 to 1500m
200 to 500 ft
< 800m
< 200 ft
Symbols :   Thunderstorms  Fog  Heavy snow  Heavy precipitations  Wind > 20 kt
SIGMETs :     Misc.  Thunderstorms  Icing  Turbulence  Mountain Waves  Volcanic Ashes







- Airport Elevation : 102 ft
- IATA code : EXT
- Download approach charts


EGTE - Exeter

CURRENT METAR :
  • 210920Z 18006KT 9000 FEW008 SCT011 18/16 Q1014

EXPIRED METARs :
  • 210850Z 19007KT 6000 FEW004 BKN006 16/15 Q1014
  • 210820Z 21084KT 6000 SCT004 BKN008 16/15 Q1014
  • 210750Z VRB03KT 8000 3500W FEW004 BKN008 16/15 Q1014
  • 210720Z 17004KT 140V210 8000 FEW004 BKN006 16/15 Q1014
  • 210650Z 13004KT 8000 FEW004 SCT010 15/14 Q1014

TAF TAF EGTE
Valid from the 21 at 09:00 until the 21 at 18:00 UTC


210756Z 2109/2118 VRB03KT 8000 BKN008
BECMG 2109/2112 9999 SCT030
No reported NOTAMs for that airfield.



MET'MAP, your aeronautical weather chart ! - Copyright ORBIFLY December 2007 - Disclaimer

ORBIFLY MET'MAP TEAM :

Programming & Development : Alexandra Zaïnal
Concept & Development : Baudouin d'Aumeries
Co-Development & Prog : Marc-Olivier Méhu
Technical & hardware support : Manuel Goepfert

Contact : metmap@orbifly.com




SOURCES & CREDITS :

   NOAA